createdAt,value
2023-02-24T00:02:05.728Z,101718.46
2023-02-24T00:04:39.980Z,101712.27
2023-02-24T00:07:11.415Z,101707.63
2023-02-24T00:09:41.116Z,101703.61
2023-02-24T00:12:13.575Z,101711.91
2023-02-24T00:14:43.360Z,101709.72
2023-02-24T00:17:16.135Z,101687.16
2023-02-24T00:19:46.666Z,101702.42
2023-02-24T00:22:16.472Z,101700.50
2023-02-24T00:24:46.307Z,101704.17
2023-02-24T00:27:15.525Z,101695.19
2023-02-24T00:29:47.427Z,101695.34
2023-02-24T00:32:17.292Z,101688.05
2023-02-24T00:34:48.574Z,101693.89
2023-02-24T00:37:19.825Z,101687.56
2023-02-24T00:39:49.115Z,101681.73
2023-02-24T00:42:18.705Z,101679.97
2023-02-24T00:44:48.855Z,101673.75
2023-02-24T00:47:18.874Z,101674.81
2023-02-24T00:49:49.967Z,101670.27
2023-02-24T00:52:21.520Z,101665.78
2023-02-24T00:54:51.099Z,101667.34
2023-02-24T00:57:21.630Z,101654.64
2023-02-24T00:59:52.246Z,101651.88
2023-02-24T01:02:21.738Z,101650.98
2023-02-24T01:04:51.508Z,101640.11
2023-02-24T01:07:20.822Z,101645.84
2023-02-24T01:09:51.685Z,101641.12
2023-02-24T01:12:39.198Z,101642.30
2023-02-24T01:15:11.124Z,101638.75
2023-02-24T01:17:41.148Z,101634.86
2023-02-24T01:20:17.049Z,101633.03
2023-02-24T01:22:48.794Z,101625.88
2023-02-24T01:25:20.642Z,101620.46
2023-02-24T01:27:50.706Z,101620.11
2023-02-24T01:30:20.893Z,101618.44
2023-02-24T01:32:51.647Z,101616.95
2023-02-24T01:35:21.478Z,101607.45
2023-02-24T01:37:50.927Z,101602.92
2023-02-24T01:40:21.901Z,101603.56
2023-02-24T01:42:51.813Z,101603.42
2023-02-24T01:45:25.250Z,101597.27
2023-02-24T01:48:00.463Z,101596.17
2023-02-24T01:50:30.893Z,101589.06
2023-02-24T01:53:04.449Z,101579.08
2023-02-24T01:55:37.403Z,101582.89
2023-02-24T01:58:09.814Z,101573.23
2023-02-24T02:00:41.422Z,101560.95
2023-02-24T02:03:24.285Z,101557.72
2023-02-24T02:05:56.037Z,101554.05
2023-02-24T02:08:26.055Z,101546.78
2023-02-24T02:10:57.552Z,101538.39
2023-02-24T02:13:28.440Z,101532.87
2023-02-24T02:16:13.967Z,101534.50
2023-02-24T02:19:11.141Z,101538.39
2023-02-24T02:21:52.519Z,101531.57
2023-02-24T02:24:30.890Z,101525.81
2023-02-24T02:27:21.874Z,101517.81
2023-02-24T02:30:19.798Z,101524.38
2023-02-24T02:33:24.737Z,101516.42
2023-02-24T02:36:03.154Z,101516.61
2023-02-24T02:38:38.580Z,101504.37
2023-02-24T02:41:11.309Z,101505.75
2023-02-24T02:43:43.955Z,101506.73
2023-02-24T02:46:17.694Z,101503.31
2023-02-24T02:48:52.926Z,101506.78
2023-02-24T02:51:28.115Z,101505.69
2023-02-24T02:54:03.442Z,101495.32
2023-02-24T02:56:36.150Z,101495.95
2023-02-24T02:59:06.442Z,101492.45
2023-02-24T03:01:39.001Z,101487.26
2023-02-24T03:04:10.553Z,101483.53
2023-02-24T03:06:48.936Z,101481.52
2023-02-24T03:09:21.403Z,101473.42
2023-02-24T03:11:54.499Z,101471.48
2023-02-24T03:14:24.636Z,101466.45
2023-02-24T03:16:56.053Z,101454.94
2023-02-24T03:19:28.425Z,101452.89
2023-02-24T03:22:00.949Z,101447.86
2023-02-24T03:24:31.151Z,101457.48
2023-02-24T03:27:07.249Z,101459.43
2023-02-24T03:29:41.500Z,101456.55
2023-02-24T03:32:23.160Z,101450.56
2023-02-24T03:35:08.584Z,101444.99
2023-02-24T03:37:39.648Z,101445.84
2023-02-24T03:40:12.090Z,101443.75
2023-02-24T03:42:48.321Z,101435.17
2023-02-24T03:45:18.293Z,101434.47
2023-02-24T03:47:47.944Z,101439.27
2023-02-24T03:50:19.330Z,101427.11
2023-02-24T03:52:56.211Z,101421.83
2023-02-24T03:55:41.221Z,101413.92
2023-02-24T03:58:24.130Z,101412.76
2023-02-24T04:01:16.159Z,101408.69
2023-02-24T04:03:51.534Z,101401.30
2023-02-24T04:06:56.139Z,101401.72
2023-02-24T04:09:32.644Z,101398.00
2023-02-24T04:12:27.975Z,101398.42
2023-02-24T04:15:03.809Z,101399.36
2023-02-24T04:17:42.656Z,101405.56
2023-02-24T04:20:15.697Z,101398.20
2023-02-24T04:22:52.108Z,101398.27
2023-02-24T04:25:27.407Z,101382.48
2023-02-24T04:28:00.170Z,101390.80
2023-02-24T04:30:32.609Z,101387.07
2023-02-24T04:33:02.150Z,101383.56
2023-02-24T04:35:33.175Z,101376.84
2023-02-24T04:38:02.548Z,101377.47
2023-02-24T04:40:32.742Z,101370.86
2023-02-24T04:43:03.184Z,101376.84
2023-02-24T04:45:33.503Z,101369.80
2023-02-24T04:48:03.723Z,101366.28
2023-02-24T04:50:35.900Z,101366.43
2023-02-24T04:53:09.427Z,101361.09
2023-02-24T04:55:41.501Z,101358.43
2023-02-24T04:58:12.826Z,101353.73
2023-02-24T05:00:42.584Z,101348.73
2023-02-24T05:03:13.626Z,101341.63
2023-02-24T05:05:52.223Z,101334.81
2023-02-24T05:08:21.688Z,101335.55
2023-02-24T05:10:51.919Z,101329.36
2023-02-24T05:13:25.268Z,101328.36
2023-02-24T05:15:57.023Z,101325.64
2023-02-24T05:18:28.943Z,101323.55
2023-02-24T05:21:16.450Z,101312.34
2023-02-24T05:23:47.540Z,101304.08
2023-02-24T05:26:18.814Z,101306.23
2023-02-24T05:28:53.151Z,101306.03
2023-02-24T05:31:28.321Z,101306.14
2023-02-24T05:34:03.400Z,101296.95
2023-02-24T05:36:36.349Z,101298.39
2023-02-24T05:39:09.929Z,101299.98
2023-02-24T05:41:42.479Z,101303.94
2023-02-24T05:44:16.772Z,101296.22
2023-02-24T05:46:47.406Z,101290.67
2023-02-24T05:49:21.902Z,101288.25
2023-02-24T05:51:55.635Z,101281.29
2023-02-24T05:54:29.133Z,101278.45
2023-02-24T05:57:05.048Z,101275.92
2023-02-24T05:59:34.863Z,101268.88
2023-02-24T06:02:09.349Z,101265.66
2023-02-24T06:04:42.993Z,101258.41
2023-02-24T06:07:16.671Z,101253.28
2023-02-24T06:09:49.162Z,101246.50
2023-02-24T06:12:18.428Z,101246.86
2023-02-24T06:14:48.224Z,101244.64
2023-02-24T06:17:18.812Z,101239.83
2023-02-24T06:19:50.577Z,101232.95
2023-02-24T06:22:22.533Z,101229.06
2023-02-24T06:24:54.358Z,101218.62
2023-02-24T06:27:25.049Z,101216.82
2023-02-24T06:29:57.495Z,101218.18
2023-02-24T06:32:28.247Z,101220.94
2023-02-24T06:34:59.403Z,101220.52
2023-02-24T06:37:30.040Z,101216.25
2023-02-24T06:39:59.705Z,101216.66
2023-02-24T06:42:28.925Z,101212.44
2023-02-24T06:44:58.511Z,101209.27
2023-02-24T06:47:27.811Z,101207.49
2023-02-24T06:49:57.926Z,101196.66
2023-02-24T06:52:27.228Z,101190.28
2023-02-24T06:54:56.465Z,101195.34
2023-02-24T06:57:25.689Z,101192.95
2023-02-24T06:59:56.576Z,101175.55
2023-02-24T07:02:27.584Z,101171.90
2023-02-24T07:04:58.849Z,101164.89
2023-02-24T07:07:29.148Z,101171.70
2023-02-24T07:09:58.389Z,101170.05
2023-02-24T07:12:27.621Z,101166.39
2023-02-24T07:14:56.838Z,101169.05
2023-02-24T07:17:26.550Z,101171.38
2023-02-24T07:19:57.294Z,101177.36
2023-02-24T07:22:26.715Z,101172.09
2023-02-24T07:24:57.609Z,101175.33
2023-02-24T07:27:27.637Z,101177.38
2023-02-24T07:29:57.101Z,101177.95
2023-02-24T07:32:26.471Z,101168.71
2023-02-24T07:34:55.807Z,101163.67
2023-02-24T07:37:25.057Z,101163.09
2023-02-24T07:39:54.532Z,101161.34
2023-02-24T07:42:23.718Z,101160.67
2023-02-24T07:44:55.575Z,101153.88
2023-02-24T07:47:25.147Z,101151.44
2023-02-24T07:49:55.605Z,101144.26
2023-02-24T07:52:24.782Z,101140.36
2023-02-24T07:54:55.107Z,101131.80
2023-02-24T07:57:25.107Z,101127.60
2023-02-24T07:59:54.559Z,101127.59
2023-02-24T08:02:24.003Z,101121.56
2023-02-24T08:04:54.533Z,101126.99
2023-02-24T08:07:25.178Z,101112.52
2023-02-24T08:10:10.370Z,101113.06
2023-02-24T08:12:43.133Z,101111.53
2023-02-24T08:15:20.621Z,101103.03
2023-02-24T08:17:50.283Z,101096.66
2023-02-24T08:20:22.394Z,101098.34
2023-02-24T08:22:53.424Z,101093.73
2023-02-24T08:25:27.594Z,101088.66
2023-02-24T08:28:12.507Z,101089.75
2023-02-24T08:30:29.723Z,101084.59
2023-02-24T08:33:00.196Z,101083.56
2023-02-24T08:35:33.336Z,101087.34
2023-02-24T08:38:07.563Z,101087.27
2023-02-24T08:40:44.442Z,101072.31
2023-02-24T08:43:20.195Z,101066.31
2023-02-24T08:45:59.529Z,101059.25
2023-02-24T08:48:41.405Z,101062.41
2023-02-24T08:51:23.819Z,101055.39
2023-02-24T08:53:54.343Z,101049.81
2023-02-24T08:56:26.346Z,101043.16
2023-02-24T08:59:01.878Z,101045.09
2023-02-24T09:01:36.062Z,101033.56
2023-02-24T09:04:15.000Z,101032.22
2023-02-24T09:06:47.645Z,101032.22
2023-02-24T09:09:21.478Z,101023.49
2023-02-24T09:11:58.832Z,101025.28
2023-02-24T09:14:33.565Z,101015.79
2023-02-24T09:17:04.191Z,101009.57
2023-02-24T09:19:50.089Z,100999.80
2023-02-24T09:22:41.129Z,101003.83
2023-02-24T09:25:22.027Z,101012.28
2023-02-24T09:27:59.261Z,101018.17
2023-02-24T09:30:36.523Z,101016.70
2023-02-24T09:33:13.620Z,101009.31
2023-02-24T09:35:43.207Z,101011.53
2023-02-24T09:38:14.108Z,101001.91
2023-02-24T09:40:52.338Z,101002.00
2023-02-24T09:43:27.839Z,100994.63
2023-02-24T09:46:00.386Z,100988.77
2023-02-24T09:48:43.986Z,100981.98
2023-02-24T09:51:22.417Z,100979.27
2023-02-24T09:53:55.183Z,100980.29
2023-02-24T09:56:43.305Z,100992.68
2023-02-24T09:59:27.467Z,100984.19
2023-02-24T10:02:04.164Z,100977.96
2023-02-24T10:04:49.487Z,100978.15
2023-02-24T10:07:38.749Z,100979.73
2023-02-24T10:10:28.534Z,100968.52
2023-02-24T10:13:05.743Z,100965.09
2023-02-24T10:15:57.014Z,100977.66
2023-02-24T10:18:28.291Z,100966.95
2023-02-24T10:21:20.489Z,100957.80
2023-02-24T10:24:12.664Z,100963.13
2023-02-24T10:27:00.145Z,100951.84
2023-02-24T10:29:43.383Z,100944.11
2023-02-24T10:32:41.856Z,100936.83
2023-02-24T10:35:19.297Z,100936.06
2023-02-24T10:37:49.290Z,100935.67
2023-02-24T10:40:20.972Z,100936.81
2023-02-24T10:42:50.188Z,100924.27
2023-02-24T10:45:34.775Z,100938.12
2023-02-24T10:48:01.549Z,100933.05
2023-02-24T10:50:34.889Z,100940.53
2023-02-24T10:53:12.372Z,100934.92
2023-02-24T10:55:48.336Z,100929.53
2023-02-24T10:58:31.455Z,100931.09
2023-02-24T11:01:13.429Z,100923.16
2023-02-24T11:03:58.714Z,100927.64
2023-02-24T11:06:44.136Z,100930.44
2023-02-24T11:09:29.539Z,100922.53
2023-02-24T11:12:19.221Z,100932.91
2023-02-24T11:15:12.248Z,100926.81
2023-02-24T11:17:53.903Z,100914.45
2023-02-24T11:20:42.311Z,100904.36
2023-02-24T11:23:00.204Z,100915.73
2023-02-24T11:25:45.412Z,100909.80
2023-02-24T11:28:34.523Z,100894.66
2023-02-24T11:31:16.424Z,100889.28
2023-02-24T11:33:58.150Z,100892.81
2023-02-24T11:36:43.401Z,100889.37
2023-02-24T11:39:37.860Z,100900.27
2023-02-24T11:42:11.497Z,100889.67
2023-02-24T11:44:46.845Z,100883.88
2023-02-24T11:47:19.370Z,100872.60
2023-02-24T11:49:52.574Z,100869.89
2023-02-24T11:52:31.742Z,100862.06
2023-02-24T11:55:03.957Z,100854.78
2023-02-24T11:57:42.344Z,100863.73
2023-02-24T12:00:20.382Z,100854.05
2023-02-24T12:03:04.037Z,100842.20
2023-02-24T12:05:39.205Z,100851.34
2023-02-24T12:08:29.802Z,100845.18
2023-02-24T12:11:11.546Z,100849.92
2023-02-24T12:13:44.116Z,100833.91
2023-02-24T12:16:28.864Z,100829.80
2023-02-24T12:19:01.697Z,100826.05
2023-02-24T12:21:43.720Z,100829.41
2023-02-24T12:24:14.490Z,100824.94
2023-02-24T12:26:54.503Z,100828.56
2023-02-24T12:29:42.664Z,100811.89
2023-02-24T12:32:34.614Z,100819.42
2023-02-24T12:35:25.049Z,100817.18
2023-02-24T12:38:19.889Z,100809.15
2023-02-24T12:41:13.308Z,100807.09
2023-02-24T12:43:57.459Z,100809.31
2023-02-24T12:46:38.111Z,100795.77
2023-02-24T12:49:30.096Z,100789.23
2023-02-24T12:52:14.323Z,100787.33
2023-02-24T12:55:07.834Z,100779.84
2023-02-24T12:57:58.921Z,100771.03
2023-02-24T13:00:50.418Z,100777.50
2023-02-24T13:03:43.045Z,100773.92
2023-02-24T13:06:18.575Z,100759.80
2023-02-24T13:09:12.200Z,100762.30
2023-02-24T13:11:56.631Z,100759.69
2023-02-24T13:14:32.232Z,100747.03
2023-02-24T13:17:07.545Z,100748.13
2023-02-24T13:19:37.111Z,100749.03
2023-02-24T13:22:12.038Z,100755.15
2023-02-24T13:24:56.646Z,100743.91
2023-02-24T13:27:28.833Z,100731.52
2023-02-24T13:30:10.363Z,100746.64
2023-02-24T13:32:42.237Z,100736.17
2023-02-24T13:35:24.873Z,100734.98
2023-02-24T13:37:55.176Z,100733.41
2023-02-24T13:40:27.780Z,100716.94
2023-02-24T13:42:58.807Z,100724.67
2023-02-24T13:45:30.010Z,100713.72
2023-02-24T13:48:36.103Z,100711.04
2023-02-24T13:51:26.614Z,100705.34
2023-02-24T13:54:02.158Z,100713.72
2023-02-24T13:56:34.816Z,100706.16
2023-02-24T13:59:27.282Z,100712.90
2023-02-24T14:02:02.440Z,100716.34
2023-02-24T14:04:36.650Z,100711.72
2023-02-24T14:07:09.430Z,100712.20
2023-02-24T14:09:41.177Z,100702.80
2023-02-24T14:12:15.943Z,100703.56
2023-02-24T14:14:46.207Z,100696.20
2023-02-24T14:17:30.832Z,100695.91
2023-02-24T14:20:15.775Z,100695.63
2023-02-24T14:22:50.848Z,100702.86
2023-02-24T14:25:20.925Z,100700.63
2023-02-24T14:27:52.386Z,100696.22
2023-02-24T14:30:27.903Z,100687.98
2023-02-24T14:32:57.404Z,100700.08
2023-02-24T14:35:38.758Z,100692.47
2023-02-24T14:38:08.287Z,100689.22
2023-02-24T14:40:37.974Z,100693.66
2023-02-24T14:43:11.745Z,100693.09
2023-02-24T14:45:44.516Z,100692.52
2023-02-24T14:48:23.311Z,100693.22
2023-02-24T14:50:59.792Z,100691.30
2023-02-24T14:53:30.584Z,100704.48
2023-02-24T14:56:03.403Z,100713.75
2023-02-24T14:58:41.853Z,100714.05
2023-02-24T15:01:34.930Z,100705.26
2023-02-24T15:04:34.039Z,100701.23
2023-02-24T15:07:08.307Z,100699.49
2023-02-24T15:09:40.697Z,100701.62
2023-02-24T15:12:12.737Z,100704.70
2023-02-24T15:14:43.486Z,100696.06
2023-02-24T15:17:16.250Z,100697.74
2023-02-24T15:19:50.281Z,100685.36
2023-02-24T15:22:26.246Z,100699.70
2023-02-24T15:25:05.101Z,100682.17
2023-02-24T15:27:34.519Z,100696.22
2023-02-24T15:30:06.832Z,100682.95
2023-02-24T15:32:38.301Z,100690.19
2023-02-24T15:35:08.786Z,100691.90
2023-02-24T15:37:42.741Z,100701.67
2023-02-24T15:40:23.132Z,100710.91
2023-02-24T15:42:58.506Z,100709.56
2023-02-24T15:45:30.872Z,100697.37
2023-02-24T15:48:02.527Z,100697.66
2023-02-24T15:50:33.122Z,100693.61
2023-02-24T15:53:05.072Z,100692.28
2023-02-24T15:55:34.281Z,100691.13
2023-02-24T15:58:05.300Z,100684.80
2023-02-24T16:00:34.506Z,100684.03
2023-02-24T16:03:04.362Z,100677.44
2023-02-24T16:05:33.583Z,100684.28
2023-02-24T16:08:03.095Z,100683.83
2023-02-24T16:10:32.557Z,100680.33
2023-02-24T16:13:03.010Z,100687.36
2023-02-24T16:15:38.037Z,100696.50
2023-02-24T16:18:12.460Z,100689.77
2023-02-24T16:20:41.739Z,100692.89
2023-02-24T16:23:11.715Z,100693.97
2023-02-24T16:25:45.381Z,100699.28
2023-02-24T16:28:16.870Z,100695.17
2023-02-24T16:30:46.496Z,100702.39
2023-02-24T16:33:18.266Z,100699.41
2023-02-24T16:35:47.611Z,100698.47
2023-02-24T16:38:18.957Z,100705.77
2023-02-24T16:40:50.148Z,100706.30
2023-02-24T16:43:19.549Z,100697.11
2023-02-24T16:45:49.102Z,100705.96
2023-02-24T16:48:26.874Z,100703.53
2023-02-24T16:50:56.214Z,100709.16
2023-02-24T16:53:25.834Z,100717.50
2023-02-24T16:55:55.067Z,100715.05
2023-02-24T16:58:25.171Z,100708.72
2023-02-24T17:00:58.712Z,100710.68
2023-02-24T17:03:31.648Z,100706.70
2023-02-24T17:06:00.995Z,100710.45
2023-02-24T17:08:30.316Z,100711.77
2023-02-24T17:11:00.117Z,100716.04
2023-02-24T17:13:29.877Z,100717.70
2023-02-24T17:15:59.285Z,100707.84
2023-02-24T17:18:28.571Z,100710.61
2023-02-24T17:20:57.863Z,100717.56
2023-02-24T17:23:27.478Z,100719.71
2023-02-24T17:25:59.741Z,100726.59
2023-02-24T17:28:29.241Z,100728.69
2023-02-24T17:30:58.943Z,100728.59
2023-02-24T17:33:28.912Z,100728.14
2023-02-24T17:35:58.195Z,100724.06
2023-02-24T17:38:28.703Z,100734.16
2023-02-24T17:40:58.039Z,100732.88
2023-02-24T17:43:27.713Z,100737.54
2023-02-24T17:45:57.260Z,100741.64
2023-02-24T17:48:26.905Z,100744.35
2023-02-24T17:50:56.125Z,100745.75
2023-02-24T17:53:26.597Z,100755.64
2023-02-24T17:56:06.821Z,100759.37
2023-02-24T17:58:36.933Z,100755.81
2023-02-24T18:01:07.522Z,100763.27
2023-02-24T18:03:38.167Z,100760.00
2023-02-24T18:06:10.289Z,100755.16
2023-02-24T18:08:40.848Z,100763.47
2023-02-24T18:11:13.465Z,100764.20
2023-02-24T18:13:43.057Z,100770.09
2023-02-24T18:16:14.620Z,100776.69
2023-02-24T18:18:44.336Z,100773.61
2023-02-24T18:21:13.912Z,100769.91
2023-02-24T18:23:43.153Z,100773.53
2023-02-24T18:26:13.812Z,100777.81
2023-02-24T18:28:43.405Z,100772.52
2023-02-24T18:31:15.957Z,100773.91
2023-02-24T18:33:44.637Z,100776.31
2023-02-24T18:36:15.130Z,100786.39
2023-02-24T18:38:45.024Z,100775.84
2023-02-24T18:41:18.388Z,100767.94
2023-02-24T18:43:51.811Z,100784.70
2023-02-24T18:46:21.668Z,100782.37
2023-02-24T18:48:51.367Z,100784.53
2023-02-24T18:51:22.986Z,100785.74
2023-02-24T18:53:53.173Z,100783.85
2023-02-24T18:56:25.796Z,100796.06
2023-02-24T18:59:00.245Z,100802.13
2023-02-24T19:01:33.078Z,100795.88
2023-02-24T19:04:03.576Z,100797.58
2023-02-24T19:06:33.766Z,100798.51
2023-02-24T19:09:06.586Z,100805.75
2023-02-24T19:11:36.359Z,100809.23
2023-02-24T19:14:06.310Z,100810.78
2023-02-24T19:16:36.428Z,100810.89
2023-02-24T19:19:06.179Z,100823.56
2023-02-24T19:21:35.902Z,100826.00
2023-02-24T19:24:07.277Z,100822.53
2023-02-24T19:26:37.565Z,100830.91
2023-02-24T19:29:07.574Z,100825.61
2023-02-24T19:31:37.431Z,100822.89
2023-02-24T19:34:08.857Z,100817.47
2023-02-24T19:36:39.020Z,100818.66
2023-02-24T19:39:11.034Z,100815.59
2023-02-24T19:41:41.231Z,100814.11
2023-02-24T19:44:10.956Z,100818.70
2023-02-24T19:46:40.461Z,100816.64
2023-02-24T19:49:09.877Z,100817.30
2023-02-24T19:51:39.357Z,100823.77
2023-02-24T19:54:08.570Z,100825.70
2023-02-24T19:56:38.288Z,100825.32
2023-02-24T19:59:09.123Z,100829.00
2023-02-24T20:01:38.524Z,100827.29
2023-02-24T20:04:08.849Z,100821.36
2023-02-24T20:06:41.062Z,100828.42
2023-02-24T20:09:15.071Z,100833.78
2023-02-24T20:11:45.437Z,100831.54
2023-02-24T20:14:16.296Z,100829.25
2023-02-24T20:16:46.284Z,100830.53
2023-02-24T20:19:17.584Z,100835.99
2023-02-24T20:21:47.605Z,100839.55
2023-02-24T20:24:18.486Z,100844.22
2023-02-24T20:26:49.896Z,100838.43
2023-02-24T20:29:21.110Z,100832.22
2023-02-24T20:31:50.844Z,100841.44
2023-02-24T20:34:20.559Z,100842.88
2023-02-24T20:36:49.937Z,100839.86
2023-02-24T20:39:19.552Z,100846.00
2023-02-24T20:41:51.035Z,100847.66
2023-02-24T20:44:20.267Z,100846.87
2023-02-24T20:46:49.542Z,100834.37
2023-02-24T20:49:18.919Z,100845.69
2023-02-24T20:51:48.357Z,100855.03
2023-02-24T20:54:17.943Z,100858.20
2023-02-24T20:56:48.387Z,100865.54
2023-02-24T20:59:21.938Z,100872.78
2023-02-24T21:01:52.247Z,100890.80
2023-02-24T21:04:22.764Z,100873.62
2023-02-24T21:06:53.414Z,100885.22
2023-02-24T21:09:23.126Z,100885.70
2023-02-24T21:11:52.737Z,100883.70
2023-02-24T21:14:23.019Z,100884.58
2023-02-24T21:16:52.697Z,100884.50
2023-02-24T21:19:22.085Z,100883.45
2023-02-24T21:21:51.440Z,100882.55
2023-02-24T21:24:21.187Z,100887.45
2023-02-24T21:26:50.858Z,100889.42
2023-02-24T21:29:20.162Z,100887.28
2023-02-24T21:31:50.059Z,100887.08
2023-02-24T21:34:20.190Z,100885.61
2023-02-24T21:36:49.584Z,100887.41
2023-02-24T21:39:21.007Z,100887.80
2023-02-24T21:41:50.212Z,100886.98
2023-02-24T21:44:21.292Z,100887.74
2023-02-24T21:46:50.610Z,100888.13
2023-02-24T21:49:20.021Z,100890.73
2023-02-24T21:51:51.528Z,100889.25
2023-02-24T21:54:22.153Z,100890.61
2023-02-24T21:56:51.501Z,100893.21
2023-02-24T21:59:21.190Z,100906.42
2023-02-24T22:01:54.799Z,100903.06
2023-02-24T22:04:33.735Z,100898.25
2023-02-24T22:07:08.801Z,100893.21
2023-02-24T22:09:40.711Z,100891.69
2023-02-24T22:12:21.249Z,100898.20
2023-02-24T22:14:51.805Z,100895.14
2023-02-24T22:17:25.315Z,100882.56
2023-02-24T22:20:01.283Z,100885.52
2023-02-24T22:22:51.396Z,100901.92
2023-02-24T22:25:23.808Z,100898.29
2023-02-24T22:27:55.065Z,100899.02
2023-02-24T22:30:28.548Z,100903.11
2023-02-24T22:33:07.165Z,100914.84
2023-02-24T22:35:38.663Z,100929.68
2023-02-24T22:38:10.887Z,100945.02
2023-02-24T22:40:45.912Z,100929.98
2023-02-24T22:43:26.093Z,100918.44
2023-02-24T22:46:06.385Z,100926.30
2023-02-24T22:48:39.363Z,100927.52
2023-02-24T22:51:10.328Z,100924.23
2023-02-24T22:53:42.318Z,100922.80
2023-02-24T22:56:14.056Z,100917.38
2023-02-24T22:58:43.428Z,100918.20
2023-02-24T23:01:16.645Z,100918.52
2023-02-24T23:03:46.271Z,100921.36
2023-02-24T23:06:18.333Z,100921.57
2023-02-24T23:08:49.767Z,100916.23
2023-02-24T23:11:24.866Z,100919.66
2023-02-24T23:13:54.866Z,100916.61
2023-02-24T23:16:32.081Z,100925.92
2023-02-24T23:19:04.545Z,100921.02
2023-02-24T23:21:34.904Z,100915.44
2023-02-24T23:24:04.466Z,100914.83
2023-02-24T23:26:38.657Z,100918.92
2023-02-24T23:29:08.537Z,100922.66
2023-02-24T23:31:38.450Z,100929.83
2023-02-24T23:34:08.993Z,100930.48
2023-02-24T23:36:41.070Z,100932.08
2023-02-24T23:39:12.543Z,100931.22
2023-02-24T23:41:42.170Z,100930.45
2023-02-24T23:44:12.544Z,100930.65
2023-02-24T23:46:42.106Z,100935.61
2023-02-24T23:49:11.486Z,100935.53
2023-02-24T23:51:48.598Z,100937.39
2023-02-24T23:54:13.410Z,100940.01
2023-02-24T23:56:42.898Z,100940.12
2023-02-24T23:59:12.382Z,100941.11
